Time,TemperatureF,DewpointF,PressureIn,WindDirection,WindDirectionDegrees,WindSpeedMPH,WindSpeedGustMPH,Humidity,HourlyPrecipIn,Conditions,Clouds,dailyrainin,SolarRadiationWatts/m^2,SoftwareType,DateUTC
2013-07-12 00:02:00,74.0,72.0,-100.00,East,80,0.0,2.0,93,0.00,,,3.93,0.000000,,2013-07-12 05:02:00,
2013-07-12 00:11:00,74.0,72.0,-100.00,East,80,0.0,2.0,93,0.00,,,3.93,0.000000,,2013-07-12 05:11:00,
2013-07-12 00:22:00,74.0,72.0,-100.00,East,80,0.0,2.0,93,0.00,,,3.93,0.000000,,2013-07-12 05:22:00,
2013-07-12 00:53:00,74.0,72.0,-100.00,NW,311,0.0,5.0,93,0.00,,,3.93,0.000000,,2013-07-12 05:53:00,
2013-07-12 01:01:00,74.0,72.0,-100.00,NW,311,0.0,5.0,93,0.00,,,3.93,0.000000,,2013-07-12 06:01:00,
2013-07-12 01:11:00,74.0,72.0,-100.00,NW,311,0.0,5.0,93,0.00,,,3.93,0.000000,,2013-07-12 06:11:00,
2013-07-12 01:22:00,74.0,72.0,-100.00,NW,311,0.0,5.0,93,0.00,,,3.93,0.000000,,2013-07-12 06:22:00,
2013-07-12 01:52:00,73.0,71.0,-100.00,NW,308,0.0,3.0,93,0.00,,,3.93,0.000000,,2013-07-12 06:52:00,
2013-07-12 02:02:00,73.0,71.0,-100.00,NW,308,0.0,3.0,93,0.00,,,3.93,0.000000,,2013-07-12 07:02:00,
2013-07-12 02:12:00,73.0,71.0,-100.00,NW,308,0.0,3.0,93,0.00,,,3.93,0.000000,,2013-07-12 07:12:00,
2013-07-12 02:22:00,73.0,71.0,-100.00,NW,308,0.0,3.0,93,0.00,,,3.93,0.000000,,2013-07-12 07:22:00,
2013-07-12 02:52:00,73.0,71.0,-100.00,NW,321,1.0,3.0,93,0.00,,,3.93,0.000000,,2013-07-12 07:52:00,
2013-07-12 03:01:00,73.0,71.0,-100.00,NW,321,1.0,3.0,93,0.00,,,3.93,0.000000,,2013-07-12 08:01:00,
2013-07-12 03:11:00,73.0,71.0,-100.00,NW,321,1.0,3.0,93,0.00,,,3.93,0.000000,,2013-07-12 08:11:00,
2013-07-12 03:21:00,73.0,71.0,-100.00,NW,321,1.0,3.0,93,0.00,,,3.93,0.000000,,2013-07-12 08:21:00,
2013-07-12 03:53:00,72.0,70.0,-100.00,NNW,335,0.0,4.0,93,0.00,,,3.93,0.000000,,2013-07-12 08:53:00,
2013-07-12 04:02:00,72.0,70.0,-100.00,NNW,335,0.0,4.0,93,0.00,,,3.93,0.000000,,2013-07-12 09:02:00,
2013-07-12 04:12:00,72.0,70.0,-100.00,NNW,335,0.0,4.0,93,0.00,,,3.93,0.000000,,2013-07-12 09:12:00,
2013-07-12 04:22:00,72.0,70.0,-100.00,NNW,335,0.0,4.0,93,0.00,,,3.93,0.000000,,2013-07-12 09:22:00,
2013-07-12 04:52:00,72.0,70.0,-100.00,NW,319,0.0,5.0,94,0.00,,,3.93,0.000000,,2013-07-12 09:52:00,
2013-07-12 05:01:00,72.0,70.0,-100.00,NW,319,0.0,5.0,94,0.00,,,3.93,0.000000,,2013-07-12 10:01:00,
2013-07-12 05:11:00,72.0,70.0,-100.00,NW,319,0.0,5.0,94,0.00,,,3.93,0.000000,,2013-07-12 10:11:00,
2013-07-12 05:22:00,72.0,70.0,-100.00,NW,319,0.0,5.0,94,0.00,,,3.93,0.000000,,2013-07-12 10:22:00,
2013-07-12 05:52:00,72.0,70.0,-100.00,NNW,333,0.0,5.0,94,0.00,,,3.93,0.000000,,2013-07-12 10:52:00,
2013-07-12 06:02:00,72.0,70.0,-100.00,NNW,333,0.0,5.0,94,0.00,,,3.93,0.000000,,2013-07-12 11:02:00,
2013-07-12 06:12:00,72.0,70.0,-100.00,NNW,333,0.0,5.0,94,0.00,,,3.93,0.000000,,2013-07-12 11:12:00,
2013-07-12 06:22:00,72.0,70.0,-100.00,NNW,333,0.0,5.0,94,0.00,,,3.93,0.000000,,2013-07-12 11:22:00,
2013-07-12 06:53:00,71.0,69.0,-100.00,NNW,334,3.0,6.0,94,0.00,,,3.93,6.000000,,2013-07-12 11:53:00,
2013-07-12 07:02:00,71.0,69.0,-100.00,NNW,334,3.0,6.0,94,0.00,,,3.93,6.000000,,2013-07-12 12:02:00,
2013-07-12 07:11:00,71.0,69.0,-100.00,NNW,334,3.0,6.0,94,0.00,,,3.93,6.000000,,2013-07-12 12:11:00,
2013-07-12 07:22:00,71.0,69.0,-100.00,NNW,334,3.0,6.0,94,0.00,,,3.93,6.000000,,2013-07-12 12:22:00,
2013-07-12 07:53:00,74.0,71.0,-100.00,NNW,328,0.0,6.0,91,0.00,,,3.93,102.000000,,2013-07-12 12:53:00,
2013-07-12 08:01:00,74.0,71.0,-100.00,NNW,328,0.0,6.0,91,0.00,,,3.93,102.000000,,2013-07-12 13:01:00,
2013-07-12 08:12:00,74.0,71.0,-100.00,NNW,328,0.0,6.0,91,0.00,,,3.93,102.000000,,2013-07-12 13:12:00,
2013-07-12 08:22:00,74.0,71.0,-100.00,NNW,328,0.0,6.0,91,0.00,,,3.93,102.000000,,2013-07-12 13:22:00,
2013-07-12 08:53:00,80.0,71.0,-100.00,NNW,342,3.0,6.0,75,0.00,,,3.93,351.000000,,2013-07-12 13:53:00,
2013-07-12 09:02:00,80.0,71.0,-100.00,NNW,342,3.0,6.0,75,0.00,,,3.93,351.000000,,2013-07-12 14:02:00,
2013-07-12 09:11:00,80.0,71.0,-100.00,NNW,342,3.0,6.0,75,0.00,,,3.93,351.000000,,2013-07-12 14:11:00,
2013-07-12 09:22:00,80.0,71.0,-100.00,NNW,342,3.0,6.0,75,0.00,,,3.93,351.000000,,2013-07-12 14:22:00,
2013-07-12 09:53:00,83.0,71.0,-100.00,NW,319,5.0,8.0,67,0.00,,,3.30,580.000000,,2013-07-12 14:53:00,
2013-07-12 10:02:00,83.0,71.0,-100.00,NW,319,5.0,8.0,67,0.00,,,3.30,580.000000,,2013-07-12 15:02:00,
2013-07-12 10:11:00,83.0,71.0,-100.00,NW,319,5.0,8.0,67,0.00,,,3.30,580.000000,,2013-07-12 15:11:00,
2013-07-12 10:22:00,83.0,71.0,-100.00,NW,319,5.0,8.0,67,0.00,,,3.30,580.000000,,2013-07-12 15:22:00,
2013-07-12 10:53:00,86.0,70.0,-100.00,North,359,4.0,9.0,60,0.00,,,2.20,787.000000,,2013-07-12 15:53:00,
2013-07-12 11:01:00,86.0,70.0,-100.00,North,359,4.0,9.0,60,0.00,,,2.20,787.000000,,2013-07-12 16:01:00,
2013-07-12 11:11:00,86.0,70.0,-100.00,North,359,4.0,9.0,60,0.00,,,2.20,787.000000,,2013-07-12 16:11:00,
2013-07-12 11:22:00,86.0,70.0,-100.00,North,359,4.0,9.0,60,0.00,,,2.20,787.000000,,2013-07-12 16:22:00,
2013-07-12 11:58:00,88.0,71.0,-100.00,North,356,4.0,10.0,58,0.00,,,1.46,942.000000,,2013-07-12 16:58:00,
2013-07-12 12:06:00,88.0,71.0,-100.00,North,356,4.0,10.0,58,0.00,,,1.46,942.000000,,2013-07-12 17:06:00,
2013-07-12 12:15:00,88.0,71.0,-100.00,North,356,4.0,10.0,58,0.00,,,1.46,942.000000,,2013-07-12 17:15:00,
2013-07-12 12:24:00,88.0,71.0,-100.00,North,356,4.0,10.0,58,0.00,,,1.46,942.000000,,2013-07-12 17:24:00,
2013-07-12 12:25:00,89.0,72.0,-100.00,NNE,31,2.0,8.0,57,0.00,,,0.28,932.000000,,2013-07-12 17:25:00,
2013-07-12 12:56:00,89.0,72.0,-100.00,NNE,31,2.0,8.0,57,0.00,,,0.28,932.000000,,2013-07-12 17:56:00,
2013-07-12 13:07:00,89.0,72.0,-100.00,NNE,31,2.0,8.0,57,0.00,,,0.28,932.000000,,2013-07-12 18:07:00,
2013-07-12 13:14:00,89.0,72.0,-100.00,NNE,31,2.0,8.0,57,0.00,,,0.28,932.000000,,2013-07-12 18:14:00,
2013-07-12 13:58:00,89.0,73.0,-100.00,SE,145,5.0,8.0,59,0.00,,,0.00,924.000000,,2013-07-12 18:58:00,
2013-07-12 14:05:00,89.0,73.0,-100.00,SE,145,5.0,8.0,59,0.00,,,0.00,924.000000,,2013-07-12 19:05:00,
2013-07-12 14:15:00,89.0,73.0,-100.00,SE,145,5.0,8.0,59,0.00,,,0.00,924.000000,,2013-07-12 19:15:00,
2013-07-12 14:23:00,89.0,73.0,-100.00,SE,145,5.0,8.0,59,0.00,,,0.00,924.000000,,2013-07-12 19:23:00,
2013-07-12 14:58:00,90.0,73.0,-100.00,SE,144,6.0,11.0,57,0.00,,,-99.99,941.000000,,2013-07-12 19:58:00,
2013-07-12 15:24:00,90.0,73.0,-100.00,SE,144,6.0,11.0,57,0.00,,,-99.99,941.000000,,2013-07-12 20:24:00,
2013-07-12 15:25:00,88.0,73.0,-100.00,South,183,6.0,13.0,61,0.00,,,0.00,813.000000,,2013-07-12 20:25:00,
2013-07-12 15:55:00,88.0,73.0,-100.00,South,183,6.0,13.0,61,0.00,,,0.00,813.000000,,2013-07-12 20:55:00,
2013-07-12 16:03:00,88.0,73.0,-100.00,South,183,6.0,13.0,61,0.00,,,0.00,813.000000,,2013-07-12 21:03:00,
2013-07-12 16:59:00,88.0,73.0,-100.00,South,180,6.0,12.0,61,0.00,,,-99.99,844.000000,,2013-07-12 21:59:00,
2013-07-12 17:16:00,88.0,73.0,-100.00,South,180,6.0,12.0,61,0.00,,,-99.99,844.000000,,2013-07-12 22:16:00,
2013-07-12 17:25:00,73.0,68.0,-100.00,East,89,2.0,17.0,85,0.00,,,0.00,123.000000,,2013-07-12 22:25:00,
2013-07-12 18:04:00,73.0,68.0,-100.00,East,89,2.0,17.0,85,0.00,,,0.00,123.000000,,2013-07-12 23:04:00,
2013-07-12 18:25:00,74.0,70.0,-100.00,NNW,339,2.0,8.0,87,0.00,,,0.00,25.000000,,2013-07-12 23:25:00,
2013-07-12 18:58:00,74.0,70.0,-100.00,NNW,339,2.0,8.0,87,0.00,,,0.00,25.000000,,2013-07-12 23:58:00,
2013-07-12 19:17:00,74.0,70.0,-100.00,NNW,339,2.0,8.0,87,0.00,,,0.00,25.000000,,2013-07-13 00:17:00,
2013-07-12 19:56:00,77.0,71.0,-100.00,South,171,1.0,4.0,83,0.00,,,0.00,62.000000,,2013-07-13 00:56:00,
2013-07-12 20:04:00,77.0,71.0,-100.00,South,171,1.0,4.0,83,0.00,,,0.00,62.000000,,2013-07-13 01:04:00,
2013-07-12 20:13:00,77.0,71.0,-100.00,South,171,1.0,4.0,83,0.00,,,0.00,62.000000,,2013-07-13 01:13:00,
2013-07-12 20:24:00,77.0,71.0,-100.00,South,171,1.0,4.0,83,0.00,,,0.00,62.000000,,2013-07-13 01:24:00,
2013-07-12 20:57:00,75.0,71.0,-100.00,NNW,329,3.0,6.0,88,0.00,,,0.00,17.000000,,2013-07-13 01:57:00,
2013-07-12 21:05:00,75.0,71.0,-100.00,NNW,329,3.0,6.0,88,0.00,,,0.00,17.000000,,2013-07-13 02:05:00,
2013-07-12 21:14:00,75.0,71.0,-100.00,NNW,329,3.0,6.0,88,0.00,,,0.00,17.000000,,2013-07-13 02:14:00,
2013-07-12 21:24:00,75.0,71.0,-100.00,NNW,329,3.0,6.0,88,0.00,,,0.00,17.000000,,2013-07-13 02:24:00,
2013-07-12 21:25:00,73.0,70.0,-100.00,NNE,17,2.0,6.0,90,0.00,,,0.00,0.000000,,2013-07-13 02:25:00,
2013-07-12 22:05:00,73.0,70.0,-100.00,NNE,17,2.0,6.0,90,0.00,,,0.00,0.000000,,2013-07-13 03:05:00,
2013-07-12 22:13:00,73.0,70.0,-100.00,NNE,17,2.0,6.0,90,0.00,,,0.00,0.000000,,2013-07-13 03:13:00,
2013-07-12 22:57:00,72.0,69.0,-100.00,NNE,30,0.0,4.0,90,0.00,,,0.00,0.000000,,2013-07-13 03:57:00,
2013-07-12 23:01:00,72.0,69.0,-100.00,NNE,30,0.0,4.0,90,0.00,,,0.00,0.000000,,2013-07-13 04:01:00,
2013-07-12 23:12:00,72.0,69.0,-100.00,NNE,30,0.0,4.0,90,0.00,,,0.00,0.000000,,2013-07-13 04:12:00,
2013-07-12 23:22:00,72.0,69.0,-100.00,NNE,30,0.0,4.0,90,0.00,,,0.00,0.000000,,2013-07-13 04:22:00,
2013-07-12 23:52:00,71.0,69.0,-100.00,North,351,0.0,3.0,92,0.00,,,0.00,0.000000,,2013-07-13 04:52:00,